createdAt,value
2018-06-02T00:02:20.310Z,15.70
2018-06-02T00:04:47.774Z,15.60
2018-06-02T00:07:15.268Z,15.60
2018-06-02T00:09:42.755Z,15.70
2018-06-02T00:12:11.037Z,15.50
2018-06-02T00:14:39.291Z,15.50
2018-06-02T00:17:07.521Z,15.50
2018-06-02T00:19:35.941Z,15.70
2018-06-02T00:22:03.568Z,15.70
2018-06-02T00:24:32.000Z,15.40
2018-06-02T00:27:00.331Z,15.60
2018-06-02T00:29:28.192Z,15.60
2018-06-02T00:31:56.110Z,15.50
2018-06-02T00:34:23.976Z,15.90
2018-06-02T00:36:52.951Z,15.50
2018-06-02T00:39:21.250Z,15.50
2018-06-02T00:41:49.422Z,15.50
2018-06-02T00:44:17.007Z,15.40
2018-06-02T00:46:45.244Z,15.70
2018-06-02T00:49:13.491Z,15.90
2018-06-02T00:51:40.972Z,15.90
2018-06-02T00:54:09.971Z,15.90
2018-06-02T00:56:38.250Z,15.90
2018-06-02T00:59:05.837Z,16.00
2018-06-02T01:01:33.287Z,16.00
2018-06-02T01:04:00.706Z,15.60
2018-06-02T01:06:29.283Z,15.90
2018-06-02T01:08:56.727Z,15.60
2018-06-02T01:11:24.170Z,15.60
2018-06-02T01:13:52.358Z,15.70
2018-06-02T01:16:21.307Z,15.60
2018-06-02T01:18:49.140Z,15.60
2018-06-02T01:21:17.346Z,15.60
2018-06-02T01:23:45.540Z,15.60
2018-06-02T01:26:12.993Z,15.60
2018-06-02T01:28:41.191Z,15.50
2018-06-02T01:31:09.390Z,15.50
2018-06-02T01:33:37.593Z,15.50
2018-06-02T01:36:05.019Z,15.50
2018-06-02T01:38:33.214Z,15.40
2018-06-02T01:41:01.133Z,15.40
2018-06-02T01:43:29.396Z,15.40
2018-06-02T01:45:56.834Z,15.40
2018-06-02T01:48:25.030Z,15.40
2018-06-02T01:50:52.487Z,15.10
2018-06-02T01:53:19.913Z,15.30
2018-06-02T01:55:47.742Z,15.30
2018-06-02T01:58:16.332Z,15.30
2018-06-02T02:00:44.162Z,15.20
2018-06-02T02:03:11.605Z,15.20
2018-06-02T02:05:39.836Z,15.20
2018-06-02T02:08:08.097Z,15.20
2018-06-02T02:10:37.078Z,15.20
2018-06-02T02:13:06.079Z,15.10
2018-06-02T02:15:34.664Z,15.00
2018-06-02T02:18:03.651Z,15.00
2018-06-02T02:20:31.874Z,15.00
2018-06-02T02:22:59.324Z,15.00
2018-06-02T02:25:27.150Z,15.00
2018-06-02T02:27:55.370Z,14.90
2018-06-02T02:30:23.566Z,14.90
2018-06-02T02:32:51.412Z,14.80
2018-06-02T02:35:18.855Z,14.70
2018-06-02T02:37:46.287Z,14.70
2018-06-02T02:40:13.728Z,14.70
2018-06-02T02:42:41.165Z,14.70
2018-06-02T02:45:08.614Z,14.40
2018-06-02T02:47:36.055Z,14.60
2018-06-02T02:50:03.498Z,14.60
2018-06-02T02:52:31.696Z,14.50
2018-06-02T02:54:59.132Z,14.50
2018-06-02T02:57:26.595Z,14.50
2018-06-02T02:59:54.074Z,14.50
2018-06-02T03:02:22.178Z,14.60
2018-06-02T03:04:49.621Z,14.70
2018-06-02T03:07:17.060Z,14.50
2018-06-02T03:09:44.495Z,14.10
2018-06-02T03:12:11.933Z,14.50
2018-06-02T03:14:39.387Z,14.70
2018-06-02T03:17:06.824Z,14.40
2018-06-02T03:19:35.034Z,14.40
2018-06-02T03:22:02.927Z,14.60
2018-06-02T03:24:30.366Z,14.40
2018-06-02T03:26:57.803Z,14.40
2018-06-02T03:29:25.255Z,14.20
2018-06-02T03:31:53.107Z,14.50
2018-06-02T03:34:20.547Z,14.40
2018-06-02T03:36:47.982Z,14.60
2018-06-02T03:39:15.452Z,14.40
2018-06-02T03:41:42.927Z,14.60
2018-06-02T03:44:10.463Z,14.50
2018-06-02T03:46:37.917Z,14.50
2018-06-02T03:49:06.176Z,14.50
2018-06-02T03:51:33.641Z,14.50
2018-06-02T03:54:01.491Z,14.30
2018-06-02T03:56:29.323Z,14.90
2018-06-02T03:58:56.790Z,15.10
2018-06-02T04:01:24.272Z,14.70
2018-06-02T04:03:51.771Z,14.70
2018-06-02T04:06:19.640Z,14.60
2018-06-02T04:08:47.902Z,14.60
2018-06-02T04:11:16.192Z,14.70
2018-06-02T04:13:43.691Z,14.30
2018-06-02T04:16:11.191Z,14.60
2018-06-02T04:18:38.732Z,14.60
2018-06-02T04:21:07.145Z,14.60
2018-06-02T04:23:34.679Z,15.40
2018-06-02T04:26:02.980Z,16.20
2018-06-02T04:28:30.864Z,16.50
2018-06-02T04:30:58.351Z,16.50
2018-06-02T04:33:25.840Z,17.30
2018-06-02T04:35:54.050Z,17.40
2018-06-02T04:38:21.482Z,17.20
2018-06-02T04:40:49.318Z,17.50
2018-06-02T04:43:16.742Z,17.40
2018-06-02T04:45:44.190Z,17.90
2018-06-02T04:48:11.661Z,17.70
2018-06-02T04:50:39.181Z,17.30
2018-06-02T04:53:06.655Z,16.90
2018-06-02T04:55:34.571Z,16.50
2018-06-02T04:58:02.007Z,16.20
2018-06-02T05:00:29.452Z,16.00
2018-06-02T05:02:57.439Z,16.00
2018-06-02T05:05:24.907Z,16.00
2018-06-02T05:07:52.782Z,16.30
2018-06-02T05:10:20.343Z,17.10
2018-06-02T05:12:48.558Z,17.90
2018-06-02T05:15:17.141Z,18.40
2018-06-02T05:17:44.560Z,18.80
2018-06-02T05:20:12.823Z,18.80
2018-06-02T05:22:40.248Z,19.10
2018-06-02T05:25:08.474Z,19.70
2018-06-02T05:27:36.690Z,20.00
2018-06-02T05:30:04.159Z,20.10
2018-06-02T05:32:31.665Z,20.20
2018-06-02T05:34:59.887Z,20.60
2018-06-02T05:37:27.357Z,20.10
2018-06-02T05:39:54.898Z,20.00
2018-06-02T05:42:23.102Z,20.50
2018-06-02T05:44:50.939Z,20.80
2018-06-02T05:47:18.382Z,21.50
2018-06-02T05:49:45.827Z,21.50
2018-06-02T05:52:13.272Z,21.50
2018-06-02T05:54:41.140Z,21.80
2018-06-02T05:57:10.051Z,22.30
2018-06-02T05:59:37.499Z,22.10
2018-06-02T06:02:06.082Z,22.70
2018-06-02T06:04:33.514Z,23.60
2018-06-02T06:07:00.955Z,22.90
2018-06-02T06:09:29.167Z,22.70
2018-06-02T06:11:56.624Z,23.60
2018-06-02T06:14:24.059Z,23.20
2018-06-02T06:16:51.499Z,23.80
2018-06-02T06:19:19.710Z,25.30
2018-06-02T06:21:47.148Z,25.30
2018-06-02T06:24:14.580Z,25.30
2018-06-02T06:26:47.765Z,25.50
2018-06-02T06:29:15.202Z,24.60
2018-06-02T06:31:42.651Z,24.70
2018-06-02T06:34:10.091Z,25.70
2018-06-02T06:36:37.523Z,26.60
2018-06-02T06:39:05.800Z,26.80
2018-06-02T06:41:33.211Z,26.80
2018-06-02T06:44:00.674Z,28.00
2018-06-02T06:46:28.113Z,28.20
2018-06-02T06:48:55.550Z,27.00
2018-06-02T06:51:24.129Z,28.00
2018-06-02T06:53:51.606Z,28.20
2018-06-02T06:56:19.044Z,28.50
2018-06-02T06:58:46.487Z,27.10
2018-06-02T07:01:13.914Z,28.00
2018-06-02T07:03:41.346Z,28.00
2018-06-02T07:06:09.547Z,28.30
2018-06-02T07:08:37.873Z,28.60
2018-06-02T07:11:05.287Z,28.50
2018-06-02T07:13:33.497Z,28.50
2018-06-02T07:16:02.081Z,27.30
2018-06-02T07:18:29.506Z,26.90
2018-06-02T07:20:56.935Z,26.50
2018-06-02T07:23:24.776Z,25.70
2018-06-02T07:25:52.205Z,26.80
2018-06-02T07:28:19.644Z,27.00
2018-06-02T07:30:47.090Z,27.30
2018-06-02T07:35:43.315Z,27.10
2018-06-02T07:38:11.510Z,27.60
2018-06-02T07:40:38.939Z,27.30
2018-06-02T07:43:06.402Z,27.70
2018-06-02T07:45:34.617Z,27.40
2018-06-02T07:48:02.454Z,27.20
2018-06-02T07:50:30.655Z,27.60
2018-06-02T07:52:58.092Z,27.60
2018-06-02T07:55:26.658Z,27.70
2018-06-02T07:57:54.867Z,26.80
2018-06-02T08:00:22.318Z,27.30
2018-06-02T08:02:49.757Z,27.20
2018-06-02T08:05:17.959Z,25.80
2018-06-02T08:07:46.162Z,24.60
2018-06-02T08:10:13.599Z,24.00
2018-06-02T08:12:41.444Z,24.30
2018-06-02T08:15:09.737Z,23.60
2018-06-02T08:17:37.164Z,24.50
2018-06-02T08:20:04.607Z,23.90
2018-06-02T08:22:32.803Z,25.50
2018-06-02T08:25:00.249Z,25.20
2018-06-02T08:27:27.679Z,25.10
2018-06-02T08:29:55.114Z,24.20
2018-06-02T08:32:22.547Z,23.90
2018-06-02T08:34:49.996Z,23.20
2018-06-02T08:37:17.417Z,22.90
2018-06-02T08:39:45.624Z,22.40
2018-06-02T08:42:13.061Z,22.50
2018-06-02T08:44:40.498Z,22.10
2018-06-02T08:47:08.711Z,22.40
2018-06-02T08:49:36.917Z,22.20
2018-06-02T08:52:04.341Z,22.40
2018-06-02T08:54:31.786Z,22.10
2018-06-02T08:56:59.206Z,21.80
2018-06-02T08:59:26.646Z,22.20
2018-06-02T09:01:54.084Z,22.20
2018-06-02T09:04:21.930Z,22.30
2018-06-02T09:06:49.359Z,22.40
2018-06-02T09:09:17.566Z,22.40
2018-06-02T09:11:45.003Z,22.50
2018-06-02T09:14:12.433Z,22.70
2018-06-02T09:16:40.646Z,23.00
2018-06-02T09:19:08.071Z,22.90
2018-06-02T09:21:36.276Z,23.10
2018-06-02T09:24:03.704Z,23.90
2018-06-02T09:26:31.140Z,23.60
2018-06-02T09:28:58.562Z,23.90
2018-06-02T09:31:26.001Z,24.00
2018-06-02T09:33:53.442Z,24.00
2018-06-02T09:36:20.878Z,23.30
2018-06-02T09:38:49.089Z,23.70
2018-06-02T09:41:16.535Z,24.00
2018-06-02T09:43:44.358Z,24.40
2018-06-02T09:46:11.810Z,26.00
2018-06-02T09:48:39.246Z,26.10
2018-06-02T09:51:06.686Z,25.70
2018-06-02T09:53:34.129Z,24.30
2018-06-02T09:56:01.566Z,23.80
2018-06-02T09:58:29.795Z,24.40
2018-06-02T10:00:57.626Z,24.20
2018-06-02T10:03:25.063Z,24.00
2018-06-02T10:05:52.497Z,24.10
2018-06-02T10:08:19.926Z,24.20
2018-06-02T10:10:47.378Z,24.20
2018-06-02T10:13:14.820Z,23.70
2018-06-02T10:15:42.260Z,23.70
2018-06-02T10:18:09.690Z,23.80
2018-06-02T10:20:37.890Z,23.80
2018-06-02T10:23:06.115Z,24.00
2018-06-02T10:25:33.596Z,24.00
2018-06-02T10:28:00.975Z,24.60
2018-06-02T10:30:28.409Z,24.80
2018-06-02T10:32:55.871Z,24.80
2018-06-02T10:35:23.298Z,24.90
2018-06-02T10:37:50.731Z,25.50
2018-06-02T10:40:18.167Z,25.40
2018-06-02T10:42:45.613Z,25.90
2018-06-02T10:45:13.038Z,25.60
2018-06-02T10:47:40.478Z,26.40
2018-06-02T10:50:07.907Z,27.00
2018-06-02T10:52:35.342Z,26.90
2018-06-02T10:55:02.788Z,27.10
2018-06-02T10:57:30.210Z,26.90
2018-06-02T10:59:58.431Z,27.40
2018-06-02T11:02:25.855Z,28.30
2018-06-02T11:04:53.283Z,28.40
2018-06-02T11:07:20.712Z,29.00
2018-06-02T11:09:48.144Z,26.80
2018-06-02T11:12:15.582Z,27.20
2018-06-02T11:14:43.007Z,27.60
2018-06-02T11:17:10.446Z,28.10
2018-06-02T11:19:37.973Z,28.30
2018-06-02T11:22:05.325Z,29.10
2018-06-02T11:24:33.514Z,29.40
2018-06-02T11:27:00.962Z,29.50
2018-06-02T11:29:28.397Z,28.90
2018-06-02T11:31:55.844Z,28.10
2018-06-02T11:34:23.275Z,27.40
2018-06-02T11:36:50.706Z,26.90
2018-06-02T11:39:18.159Z,25.90
2018-06-02T11:41:45.593Z,25.50
2018-06-02T11:44:13.048Z,25.30
2018-06-02T11:46:40.450Z,25.00
2018-06-02T11:49:07.886Z,24.80
2018-06-02T11:51:35.313Z,25.10
2018-06-02T11:54:02.755Z,24.80
2018-06-02T11:56:30.192Z,24.70
2018-06-02T11:58:59.282Z,24.90
2018-06-02T12:01:27.478Z,25.00
2018-06-02T12:03:54.915Z,24.90
2018-06-02T12:06:23.111Z,25.20
2018-06-02T12:08:50.549Z,25.30
2018-06-02T12:11:18.758Z,27.30
2018-06-02T12:13:46.214Z,27.00
2018-06-02T12:16:13.627Z,27.10
2018-06-02T12:18:41.839Z,27.10
2018-06-02T12:21:09.271Z,27.00
2018-06-02T12:23:36.705Z,27.70
2018-06-02T12:26:04.123Z,27.60
2018-06-02T12:28:31.656Z,27.00
2018-06-02T12:30:59.033Z,28.30
2018-06-02T12:33:26.475Z,28.10
2018-06-02T12:35:53.903Z,28.10
2018-06-02T12:38:22.111Z,28.90
2018-06-02T12:40:49.547Z,28.90
2018-06-02T12:43:16.969Z,28.60
2018-06-02T12:45:44.410Z,28.60
2018-06-02T12:48:11.850Z,28.60
2018-06-02T12:50:39.291Z,28.00
2018-06-02T12:53:06.719Z,27.20
2018-06-02T12:55:34.152Z,27.40
2018-06-02T12:58:01.583Z,27.20
2018-06-02T13:00:29.027Z,27.00
2018-06-02T13:02:56.466Z,28.50
2018-06-02T13:05:23.911Z,28.40
2018-06-02T13:07:51.387Z,27.70
2018-06-02T13:10:18.827Z,27.80
2018-06-02T13:12:46.258Z,27.90
2018-06-02T13:15:14.475Z,29.20
2018-06-02T13:17:41.907Z,29.20
2018-06-02T13:20:09.339Z,29.20
2018-06-02T13:22:37.542Z,28.40
2018-06-02T13:25:04.975Z,28.30
2018-06-02T13:27:33.166Z,27.40
2018-06-02T13:30:00.595Z,27.30
2018-06-02T13:32:28.795Z,28.80
2018-06-02T13:34:56.226Z,27.60
2018-06-02T13:37:23.652Z,27.70
2018-06-02T13:39:51.091Z,27.70
2018-06-02T13:42:18.525Z,27.80
2018-06-02T13:44:45.955Z,28.20
2018-06-02T13:47:14.168Z,28.10
2018-06-02T13:49:41.603Z,28.00
2018-06-02T13:52:09.030Z,27.70
2018-06-02T13:54:37.228Z,27.90
2018-06-02T13:57:04.662Z,28.30
2018-06-02T13:59:32.091Z,28.30
2018-06-02T14:01:59.535Z,28.40
2018-06-02T14:04:26.968Z,27.70
2018-06-02T14:06:54.402Z,26.90
2018-06-02T14:09:21.835Z,26.80
2018-06-02T14:11:49.274Z,26.30
2018-06-02T14:14:17.420Z,26.10
2018-06-02T14:16:44.856Z,26.00
2018-06-02T14:19:12.285Z,26.10
2018-06-02T14:21:40.504Z,27.10
2018-06-02T14:24:07.929Z,27.10
2018-06-02T14:26:35.362Z,27.90
2018-06-02T14:29:03.558Z,27.70
2018-06-02T14:31:31.777Z,27.40
2018-06-02T14:33:59.210Z,27.50
2018-06-02T14:36:26.643Z,27.70
2018-06-02T14:38:54.073Z,27.50
2018-06-02T14:41:21.515Z,27.40
2018-06-02T14:43:48.942Z,27.20
2018-06-02T14:46:16.390Z,27.10
2018-06-02T14:48:43.820Z,27.10
2018-06-02T14:51:12.023Z,27.10
2018-06-02T14:53:40.272Z,27.20
2018-06-02T14:56:08.469Z,26.90
2018-06-02T14:58:35.907Z,27.00
2018-06-02T15:01:03.343Z,27.00
2018-06-02T15:03:31.554Z,27.50
2018-06-02T15:05:59.762Z,27.50
2018-06-02T15:08:27.204Z,27.30
2018-06-02T15:10:54.642Z,27.30
2018-06-02T15:13:22.117Z,26.40
2018-06-02T15:15:49.533Z,26.50
2018-06-02T15:18:16.967Z,26.40
2018-06-02T15:20:44.396Z,26.90
2018-06-02T15:23:11.849Z,27.30
2018-06-02T15:25:39.276Z,26.90
2018-06-02T15:28:06.733Z,26.40
2018-06-02T15:30:34.169Z,26.00
2018-06-02T15:33:01.604Z,26.00
2018-06-02T15:35:29.802Z,25.70
2018-06-02T15:37:57.234Z,25.60
2018-06-02T15:40:25.064Z,25.50
2018-06-02T15:42:52.499Z,25.70
2018-06-02T15:45:19.927Z,25.70
2018-06-02T15:47:48.127Z,26.00
2018-06-02T15:50:15.603Z,26.00
2018-06-02T15:52:43.043Z,26.20
2018-06-02T15:55:10.476Z,26.40
2018-06-02T15:57:37.903Z,26.20
2018-06-02T16:00:05.344Z,26.30
2018-06-02T16:02:32.783Z,26.10
2018-06-02T16:05:00.229Z,25.40
2018-06-02T16:07:27.659Z,25.90
2018-06-02T16:09:55.096Z,25.30
2018-06-02T16:12:23.292Z,25.20
2018-06-02T16:14:50.727Z,25.10
2018-06-02T16:17:18.163Z,25.10
2018-06-02T16:19:45.600Z,25.00
2018-06-02T16:22:13.042Z,24.90
2018-06-02T16:24:40.483Z,25.30
2018-06-02T16:27:07.914Z,25.40
2018-06-02T16:29:35.355Z,25.40
2018-06-02T16:32:03.582Z,25.30
2018-06-02T16:34:31.013Z,24.80
2018-06-02T16:36:58.439Z,25.10
2018-06-02T16:41:55.052Z,25.20
2018-06-02T16:44:22.499Z,25.00
2018-06-02T16:46:49.939Z,25.10
2018-06-02T16:49:17.366Z,24.80
2018-06-02T16:51:45.569Z,24.80
2018-06-02T16:54:12.995Z,24.90
2018-06-02T16:56:41.206Z,24.60
2018-06-02T16:59:08.631Z,24.60
2018-06-02T17:01:36.828Z,24.50
2018-06-02T17:04:04.259Z,24.60
2018-06-02T17:06:32.458Z,24.50
2018-06-02T17:08:59.903Z,24.60
2018-06-02T17:11:27.330Z,24.50
2018-06-02T17:13:54.776Z,24.50
2018-06-02T17:16:22.707Z,24.70
2018-06-02T17:18:50.142Z,24.80
2018-06-02T17:21:17.719Z,24.40
2018-06-02T17:23:45.152Z,24.50
2018-06-02T17:26:12.596Z,24.70
2018-06-02T17:28:40.851Z,24.70
2018-06-02T17:31:08.281Z,24.70
2018-06-02T17:33:35.719Z,24.70
2018-06-02T17:36:03.172Z,24.60
2018-06-02T17:38:30.607Z,24.60
2018-06-02T17:40:58.045Z,24.50
2018-06-02T17:43:26.259Z,24.40
2018-06-02T17:45:53.692Z,24.40
2018-06-02T17:48:21.126Z,24.20
2018-06-02T17:50:49.335Z,24.10
2018-06-02T17:53:17.535Z,24.20
2018-06-02T17:55:45.013Z,23.90
2018-06-02T17:58:12.450Z,24.90
2018-06-02T18:00:39.886Z,24.20
2018-06-02T18:03:07.315Z,24.20
2018-06-02T18:05:34.749Z,24.10
2018-06-02T18:08:02.948Z,24.10
2018-06-02T18:10:30.390Z,24.00
2018-06-02T18:12:58.599Z,24.00
2018-06-02T18:15:26.034Z,23.90
2018-06-02T18:17:54.238Z,23.90
2018-06-02T18:20:21.670Z,23.90
2018-06-02T18:22:49.102Z,23.90
2018-06-02T18:25:17.362Z,23.90
2018-06-02T18:27:44.792Z,23.80
2018-06-02T18:30:12.230Z,23.40
2018-06-02T18:32:40.058Z,23.80
2018-06-02T18:35:08.270Z,23.70
2018-06-02T18:37:35.723Z,23.70
2018-06-02T18:40:03.159Z,23.60
2018-06-02T18:42:30.694Z,24.30
2018-06-02T18:44:58.899Z,23.50
2018-06-02T18:47:26.736Z,23.60
2018-06-02T18:49:54.955Z,23.30
2018-06-02T18:52:22.398Z,23.50
2018-06-02T18:54:49.827Z,23.20
2018-06-02T18:57:18.048Z,23.10
2018-06-02T18:59:45.475Z,23.10
2018-06-02T19:02:12.925Z,23.00
2018-06-02T19:04:40.358Z,22.90
2018-06-02T19:07:07.794Z,22.80
2018-06-02T19:09:35.259Z,22.70
2018-06-02T19:12:02.695Z,22.70
2018-06-02T19:14:30.123Z,22.50
2018-06-02T19:16:57.555Z,22.70
2018-06-02T19:19:25.804Z,22.50
2018-06-02T19:21:53.238Z,22.50
2018-06-02T19:24:20.671Z,22.40
2018-06-02T19:26:48.112Z,22.30
2018-06-02T19:29:16.333Z,22.20
2018-06-02T19:31:43.781Z,22.30
2018-06-02T19:34:11.217Z,22.20
2018-06-02T19:36:38.664Z,22.20
2018-06-02T19:39:06.151Z,22.00
2018-06-02T19:41:33.595Z,22.10
2018-06-02T19:44:01.046Z,22.30
2018-06-02T19:46:28.478Z,21.90
2018-06-02T19:48:56.321Z,21.90
2018-06-02T19:51:24.548Z,21.80
2018-06-02T19:53:51.990Z,21.50
2018-06-02T19:56:19.406Z,21.70
2018-06-02T19:58:47.607Z,21.50
2018-06-02T20:01:15.036Z,21.30
2018-06-02T20:03:43.244Z,21.40
2018-06-02T20:06:10.671Z,21.30
2018-06-02T20:08:38.879Z,21.30
2018-06-02T20:11:06.315Z,21.20
2018-06-02T20:13:33.759Z,21.00
2018-06-02T20:16:01.969Z,20.90
2018-06-02T20:18:29.398Z,20.90
2018-06-02T20:20:56.826Z,20.80
2018-06-02T20:23:24.670Z,20.70
2018-06-02T20:25:52.106Z,20.80
2018-06-02T20:28:20.311Z,20.60
2018-06-02T20:30:47.742Z,20.60
2018-06-02T20:33:15.180Z,20.40
2018-06-02T20:35:42.990Z,20.10
2018-06-02T20:38:10.422Z,20.10
2018-06-02T20:40:38.262Z,19.90
2018-06-02T20:43:05.691Z,19.80
2018-06-02T20:45:33.889Z,19.80
2018-06-02T20:48:01.322Z,19.80
2018-06-02T20:50:29.529Z,19.70
2018-06-02T20:52:56.976Z,19.90
2018-06-02T20:55:24.431Z,19.60
2018-06-02T20:57:51.854Z,19.80
2018-06-02T21:00:19.695Z,19.20
2018-06-02T21:02:47.135Z,19.00
2018-06-02T21:05:14.572Z,19.40
2018-06-02T21:07:41.999Z,19.10
2018-06-02T21:10:09.823Z,19.30
2018-06-02T21:12:37.273Z,19.10
2018-06-02T21:15:04.720Z,18.80
2018-06-02T21:17:32.152Z,19.00
2018-06-02T21:19:59.994Z,18.80
2018-06-02T21:24:56.599Z,18.80
2018-06-02T21:27:24.043Z,18.80
2018-06-02T21:29:51.478Z,18.70
2018-06-02T21:32:18.912Z,18.50
2018-06-02T21:34:46.363Z,18.50
2018-06-02T21:37:13.966Z,18.40
2018-06-02T21:39:42.231Z,18.60
2018-06-02T21:42:10.087Z,18.30
2018-06-02T21:44:37.519Z,18.60
2018-06-02T21:47:04.966Z,18.30
2018-06-02T21:49:32.859Z,18.20
2018-06-02T21:52:00.327Z,17.90
2018-06-02T21:54:27.761Z,18.30
2018-06-02T21:56:55.963Z,18.00
2018-06-02T21:59:23.395Z,18.00
2018-06-02T22:01:51.622Z,17.90
2018-06-02T22:04:19.124Z,17.90
2018-06-02T22:06:48.103Z,17.70
2018-06-02T22:09:15.549Z,17.70
2018-06-02T22:11:43.018Z,17.70
2018-06-02T22:14:10.440Z,17.60
2018-06-02T22:16:37.880Z,17.60
2018-06-02T22:19:05.302Z,17.60
2018-06-02T22:21:33.507Z,17.60
2018-06-02T22:24:00.937Z,17.50
2018-06-02T22:26:28.382Z,17.40
2018-06-02T22:28:56.591Z,17.30
2018-06-02T22:31:24.034Z,17.20
2018-06-02T22:33:51.466Z,17.10
